createdAt,value
2022-09-24T00:01:24.171Z,48.60
2022-09-24T00:04:00.823Z,48.60
2022-09-24T00:06:37.704Z,48.50
2022-09-24T00:09:12.935Z,48.50
2022-09-24T00:11:49.855Z,49.10
2022-09-24T00:14:24.486Z,48.50
2022-09-24T00:16:58.405Z,48.50
2022-09-24T00:19:32.308Z,48.50
2022-09-24T00:22:06.441Z,48.40
2022-09-24T00:25:00.468Z,48.40
2022-09-24T00:27:35.804Z,48.70
2022-09-24T00:30:10.394Z,49.00
2022-09-24T00:32:44.317Z,49.20
2022-09-24T00:35:19.012Z,49.80
2022-09-24T00:37:53.104Z,50.00
2022-09-24T00:40:30.135Z,50.20
2022-09-24T00:43:27.252Z,50.40
2022-09-24T00:46:09.765Z,50.60
2022-09-24T00:48:44.521Z,51.20
2022-09-24T00:51:21.564Z,50.40
2022-09-24T00:54:01.280Z,50.40
2022-09-24T00:56:38.549Z,50.40
2022-09-24T00:59:17.582Z,50.40
2022-09-24T01:01:54.098Z,50.40
2022-09-24T01:04:29.598Z,50.30
2022-09-24T01:07:04.102Z,50.30
2022-09-24T01:09:38.261Z,50.30
2022-09-24T01:12:20.900Z,50.30
2022-09-24T01:15:05.571Z,50.30
2022-09-24T01:17:45.646Z,50.30
2022-09-24T01:20:51.757Z,50.20
2022-09-24T01:23:57.541Z,50.40
2022-09-24T01:26:49.743Z,50.40
2022-09-24T01:29:45.357Z,50.50
2022-09-24T01:32:31.626Z,50.60
2022-09-24T01:35:14.447Z,50.50
2022-09-24T01:37:54.536Z,50.40
2022-09-24T01:40:31.967Z,50.40
2022-09-24T01:43:08.303Z,50.30
2022-09-24T01:45:44.046Z,50.40
2022-09-24T01:48:21.339Z,50.40
2022-09-24T01:51:02.797Z,50.30
2022-09-24T01:53:43.918Z,50.40
2022-09-24T01:56:21.230Z,50.40
2022-09-24T01:59:01.036Z,50.30
2022-09-24T02:01:43.478Z,50.30
2022-09-24T02:04:22.508Z,50.30
2022-09-24T02:07:02.102Z,50.40
2022-09-24T02:09:38.280Z,50.40
2022-09-24T02:12:19.801Z,50.40
2022-09-24T02:14:57.473Z,50.50
2022-09-24T02:17:36.956Z,50.50
2022-09-24T02:20:15.119Z,50.40
2022-09-24T02:22:50.725Z,50.40
2022-09-24T02:25:31.890Z,50.50
2022-09-24T02:28:05.944Z,50.50
2022-09-24T02:30:44.912Z,50.40
2022-09-24T02:33:37.160Z,50.40
2022-09-24T02:36:12.801Z,50.40
2022-09-24T02:38:47.590Z,50.40
2022-09-24T02:41:24.161Z,50.30
2022-09-24T02:43:58.384Z,50.40
2022-09-24T02:46:32.421Z,50.30
2022-09-24T02:49:08.003Z,50.40
2022-09-24T02:51:42.722Z,50.50
2022-09-24T02:54:16.715Z,50.50
2022-09-24T02:56:50.831Z,51.10
2022-09-24T02:59:25.204Z,50.60
2022-09-24T03:01:59.301Z,50.60
2022-09-24T03:04:35.840Z,50.50
2022-09-24T03:07:10.377Z,50.50
2022-09-24T03:09:44.531Z,50.50
2022-09-24T03:12:18.458Z,50.60
2022-09-24T03:14:52.471Z,50.50
2022-09-24T03:17:27.983Z,50.60
2022-09-24T03:20:03.888Z,50.60
2022-09-24T03:22:37.915Z,50.60
2022-09-24T03:25:12.426Z,50.50
2022-09-24T03:27:46.331Z,50.40
2022-09-24T03:30:37.208Z,50.50
2022-09-24T03:33:11.134Z,50.60
2022-09-24T03:35:46.517Z,50.60
2022-09-24T03:38:22.717Z,50.60
2022-09-24T03:40:57.044Z,50.60
2022-09-24T03:43:31.500Z,50.70
2022-09-24T03:46:07.011Z,50.70
2022-09-24T03:48:42.771Z,50.60
2022-09-24T03:51:20.330Z,50.60
2022-09-24T03:53:54.396Z,50.60
2022-09-24T03:56:28.505Z,50.50
2022-09-24T03:59:02.434Z,50.60
2022-09-24T04:01:37.711Z,50.50
2022-09-24T04:04:15.439Z,50.50
2022-09-24T04:06:50.953Z,50.40
2022-09-24T04:09:24.911Z,50.40
2022-09-24T04:11:59.483Z,50.30
2022-09-24T04:14:33.457Z,50.30
2022-09-24T04:17:07.412Z,50.30
2022-09-24T04:19:41.379Z,50.30
2022-09-24T04:22:16.763Z,50.30
2022-09-24T04:24:51.438Z,50.30
2022-09-24T04:27:25.413Z,50.30
2022-09-24T04:29:59.359Z,50.40
2022-09-24T04:32:33.398Z,50.30
2022-09-24T04:35:08.206Z,50.40
2022-09-24T04:37:43.566Z,50.40
2022-09-24T04:40:18.002Z,50.40
2022-09-24T04:42:54.809Z,50.30
2022-09-24T04:45:29.349Z,50.30
2022-09-24T04:48:03.542Z,50.30
2022-09-24T04:50:41.945Z,50.20
2022-09-24T04:53:21.034Z,50.90
2022-09-24T04:55:55.067Z,50.30
2022-09-24T04:58:29.233Z,50.20
2022-09-24T05:01:04.271Z,50.40
2022-09-24T05:03:38.325Z,50.20
2022-09-24T05:06:12.293Z,50.20
2022-09-24T05:08:47.625Z,50.30
2022-09-24T05:11:21.521Z,50.30
2022-09-24T05:13:55.504Z,50.20
2022-09-24T05:16:29.451Z,50.20
2022-09-24T05:19:04.693Z,50.30
2022-09-24T05:21:38.661Z,50.40
2022-09-24T05:24:14.363Z,50.40
2022-09-24T05:27:06.024Z,50.30
2022-09-24T05:29:40.970Z,50.40
2022-09-24T05:32:17.421Z,50.60
2022-09-24T05:34:52.582Z,50.60
2022-09-24T05:37:26.618Z,50.80
2022-09-24T05:40:22.697Z,50.80
2022-09-24T05:43:02.703Z,50.60
2022-09-24T05:45:36.655Z,50.60
2022-09-24T05:48:10.562Z,50.40
2022-09-24T05:50:44.480Z,50.40
2022-09-24T05:53:18.558Z,50.40
2022-09-24T05:55:53.916Z,50.30
2022-09-24T05:58:27.975Z,50.30
2022-09-24T06:01:02.470Z,50.20
2022-09-24T06:03:36.623Z,50.10
2022-09-24T06:06:10.608Z,50.00
2022-09-24T06:08:44.516Z,50.00
2022-09-24T06:11:22.625Z,50.00
2022-09-24T06:13:56.710Z,50.00
2022-09-24T06:16:30.952Z,49.90
2022-09-24T06:19:05.210Z,50.00
2022-09-24T06:21:39.213Z,50.00
2022-09-24T06:24:15.879Z,50.20
2022-09-24T06:26:52.148Z,50.40
2022-09-24T06:29:26.767Z,50.50
2022-09-24T06:32:02.094Z,50.70
2022-09-24T06:34:36.018Z,50.90
2022-09-24T06:37:09.980Z,50.90
2022-09-24T06:39:44.150Z,50.80
2022-09-24T06:42:20.994Z,50.80
2022-09-24T06:44:54.922Z,50.70
2022-09-24T06:47:30.442Z,50.70
2022-09-24T06:50:04.695Z,50.60
2022-09-24T06:52:38.703Z,50.50
2022-09-24T06:55:12.664Z,50.80
2022-09-24T06:57:48.221Z,50.80
2022-09-24T07:00:22.117Z,50.50
2022-09-24T07:02:56.152Z,50.30
2022-09-24T07:05:30.342Z,50.20
2022-09-24T07:08:04.433Z,50.10
2022-09-24T07:10:39.849Z,50.00
2022-09-24T07:13:15.806Z,50.00
2022-09-24T07:15:51.345Z,49.90
2022-09-24T07:18:25.428Z,49.90
2022-09-24T07:20:59.323Z,49.90
2022-09-24T07:23:33.259Z,49.80
2022-09-24T07:26:07.483Z,49.80
2022-09-24T07:28:42.965Z,49.90
2022-09-24T07:31:17.736Z,49.80
2022-09-24T07:33:52.007Z,49.70
2022-09-24T07:36:25.973Z,49.70
2022-09-24T07:38:59.709Z,49.70
2022-09-24T07:41:36.359Z,49.80
2022-09-24T07:44:15.562Z,49.80
2022-09-24T07:46:49.690Z,46.10
2022-09-24T07:49:24.728Z,41.70
2022-09-24T07:51:58.612Z,38.90
2022-09-24T07:54:32.744Z,37.50
2022-09-24T07:57:13.688Z,37.30
2022-09-24T07:59:51.571Z,37.50
2022-09-24T08:02:25.742Z,38.70
2022-09-24T08:04:59.771Z,36.40
2022-09-24T08:07:33.931Z,34.70
2022-09-24T08:10:08.584Z,35.10
2022-09-24T08:12:42.559Z,35.20
2022-09-24T08:15:18.288Z,35.30
2022-09-24T08:17:52.339Z,35.30
2022-09-24T08:20:26.356Z,35.50
2022-09-24T08:23:03.504Z,36.00
2022-09-24T08:25:37.546Z,36.40
2022-09-24T08:28:12.372Z,37.00
2022-09-24T08:30:48.129Z,37.30
2022-09-24T08:33:22.201Z,37.50
2022-09-24T08:35:56.305Z,38.30
2022-09-24T08:38:30.315Z,38.90
2022-09-24T08:41:19.955Z,39.30
2022-09-24T08:44:00.214Z,39.70
2022-09-24T08:46:57.907Z,40.00
2022-09-24T08:49:36.988Z,40.60
2022-09-24T08:52:24.218Z,40.50
2022-09-24T08:55:02.527Z,40.60
2022-09-24T08:57:42.186Z,40.60
2022-09-24T09:00:16.717Z,40.60
2022-09-24T09:02:59.510Z,40.50
2022-09-24T09:05:54.793Z,40.40
2022-09-24T09:15:51.633Z,40.20
2022-09-24T09:18:32.960Z,41.10
2022-09-24T09:21:17.145Z,41.80
2022-09-24T09:23:52.883Z,43.00
2022-09-24T09:26:27.489Z,43.00
2022-09-24T09:29:07.038Z,43.10
2022-09-24T09:31:56.652Z,43.30
2022-09-24T09:34:49.280Z,43.50
2022-09-24T09:37:30.571Z,43.50
2022-09-24T09:40:27.671Z,43.40
2022-09-24T09:43:06.758Z,43.30
2022-09-24T09:45:48.086Z,43.70
2022-09-24T09:48:26.315Z,43.50
2022-09-24T09:51:04.661Z,43.50
2022-09-24T09:53:40.213Z,43.40
2022-09-24T09:56:16.317Z,43.20
2022-09-24T09:58:53.771Z,42.80
2022-09-24T10:01:33.694Z,42.80
2022-09-24T10:04:25.406Z,42.90
2022-09-24T10:07:06.706Z,42.80
2022-09-24T10:09:42.250Z,42.70
2022-09-24T10:12:22.268Z,42.70
2022-09-24T10:15:01.822Z,42.60
2022-09-24T10:17:39.176Z,42.50
2022-09-24T10:20:20.379Z,42.40
2022-09-24T10:22:57.557Z,42.30
2022-09-24T10:25:33.701Z,42.30
2022-09-24T10:28:28.178Z,42.40
2022-09-24T10:31:03.327Z,42.70
2022-09-24T10:33:39.245Z,42.90
2022-09-24T10:36:20.538Z,43.10
2022-09-24T10:39:04.990Z,43.00
2022-09-24T10:41:39.192Z,43.10
2022-09-24T10:44:13.926Z,43.20
2022-09-24T10:47:09.360Z,43.40
2022-09-24T10:49:56.530Z,43.70
2022-09-24T10:52:44.256Z,43.90
2022-09-24T10:55:43.615Z,44.30
2022-09-24T10:58:35.778Z,44.50
2022-09-24T11:01:17.510Z,44.90
2022-09-24T11:04:36.436Z,47.00
2022-09-24T11:07:41.585Z,47.80
2022-09-24T11:10:25.299Z,47.60
2022-09-24T11:13:12.010Z,47.60
2022-09-24T11:16:09.530Z,47.40
2022-09-24T11:18:54.956Z,47.30
2022-09-24T11:21:42.133Z,47.20
2022-09-24T11:24:38.287Z,46.90
2022-09-24T11:27:34.272Z,46.50
2022-09-24T11:30:14.721Z,46.20
2022-09-24T11:33:08.536Z,45.90
2022-09-24T11:36:11.834Z,45.50
2022-09-24T11:39:01.939Z,45.30
2022-09-24T11:41:50.723Z,45.20
2022-09-24T11:44:52.410Z,44.80
2022-09-24T11:47:43.758Z,44.70
2022-09-24T11:50:27.288Z,44.80
2022-09-24T11:53:07.623Z,44.80
2022-09-24T11:55:47.619Z,44.90
2022-09-24T11:58:28.450Z,45.00
2022-09-24T12:01:09.909Z,45.20
2022-09-24T12:03:49.339Z,45.60
2022-09-24T12:06:26.708Z,45.90
2022-09-24T12:09:06.418Z,45.50
2022-09-24T12:11:44.029Z,45.80
2022-09-24T12:14:24.299Z,46.00
2022-09-24T12:17:04.563Z,45.90
2022-09-24T12:19:43.650Z,46.00
2022-09-24T12:22:19.737Z,46.50
2022-09-24T12:24:55.155Z,46.80
2022-09-24T12:27:34.724Z,46.80
2022-09-24T12:30:41.839Z,46.80
2022-09-24T12:33:21.192Z,47.20
2022-09-24T12:36:04.619Z,47.30
2022-09-24T12:38:41.393Z,47.20
2022-09-24T12:41:30.796Z,47.10
2022-09-24T12:44:09.807Z,47.20
2022-09-24T12:46:47.653Z,47.10
2022-09-24T12:49:31.423Z,47.10
2022-09-24T12:52:18.522Z,47.00
2022-09-24T12:54:59.764Z,46.50
2022-09-24T12:57:37.299Z,46.50
2022-09-24T13:00:36.784Z,46.30
2022-09-24T13:03:35.230Z,45.90
2022-09-24T13:06:25.283Z,46.20
2022-09-24T13:08:59.557Z,46.30
2022-09-24T13:11:37.635Z,46.60
2022-09-24T13:14:22.954Z,46.80
2022-09-24T13:16:58.144Z,47.30
2022-09-24T13:19:37.857Z,47.10
2022-09-24T13:22:24.447Z,47.40
2022-09-24T13:25:23.997Z,47.60
2022-09-24T13:28:01.305Z,47.60
2022-09-24T13:30:40.030Z,47.40
2022-09-24T13:33:24.286Z,47.60
2022-09-24T13:36:17.434Z,48.00
2022-09-24T13:39:01.268Z,48.90
2022-09-24T13:41:46.550Z,48.70
2022-09-24T13:44:27.634Z,49.00
2022-09-24T13:47:06.827Z,49.60
2022-09-24T13:49:44.834Z,49.90
2022-09-24T13:52:30.242Z,49.60
2022-09-24T13:55:12.212Z,50.20
2022-09-24T13:57:47.401Z,50.30
2022-09-24T14:00:24.687Z,49.40
2022-09-24T14:03:03.512Z,46.10
2022-09-24T14:05:38.516Z,41.70
2022-09-24T14:08:16.849Z,38.70
2022-09-24T14:10:51.234Z,37.70
2022-09-24T14:13:26.184Z,37.80
2022-09-24T14:16:02.829Z,37.60
2022-09-24T14:18:37.359Z,38.40
2022-09-24T14:21:17.090Z,38.70
2022-09-24T14:23:58.644Z,39.50
2022-09-24T14:26:36.650Z,39.60
2022-09-24T14:29:15.710Z,39.90
2022-09-24T14:31:53.695Z,39.80
2022-09-24T14:34:32.892Z,40.10
2022-09-24T14:37:13.046Z,40.60
2022-09-24T14:39:52.023Z,40.70
2022-09-24T14:42:29.401Z,40.90
2022-09-24T14:45:05.572Z,41.20
2022-09-24T14:47:39.648Z,41.50
2022-09-24T14:50:35.444Z,41.60
2022-09-24T14:53:24.195Z,42.00
2022-09-24T14:55:59.498Z,42.00
2022-09-24T14:58:40.346Z,42.00
2022-09-24T15:01:17.724Z,42.10
2022-09-24T15:03:55.690Z,42.30
2022-09-24T15:06:32.373Z,42.70
2022-09-24T15:09:08.703Z,42.30
2022-09-24T15:11:44.339Z,42.40
2022-09-24T15:14:26.001Z,42.60
2022-09-24T15:17:11.221Z,42.80
2022-09-24T15:19:46.180Z,43.00
2022-09-24T15:22:21.360Z,43.00
2022-09-24T15:25:00.939Z,43.00
2022-09-24T15:27:39.999Z,43.20
2022-09-24T15:30:20.880Z,43.50
2022-09-24T15:32:54.837Z,43.70
2022-09-24T15:35:28.951Z,43.60
2022-09-24T15:38:02.977Z,43.70
2022-09-24T15:40:38.044Z,44.10
2022-09-24T15:43:21.165Z,44.50
2022-09-24T15:45:55.102Z,44.70
2022-09-24T15:48:29.232Z,44.80
2022-09-24T15:51:10.114Z,44.70
2022-09-24T15:53:45.926Z,44.70
2022-09-24T15:56:19.954Z,44.80
2022-09-24T15:58:56.289Z,45.20
2022-09-24T16:01:30.354Z,45.60
2022-09-24T16:04:04.417Z,45.80
2022-09-24T16:06:38.501Z,45.90
2022-09-24T16:09:12.582Z,46.20
2022-09-24T16:11:46.949Z,46.40
2022-09-24T16:14:22.660Z,46.70
2022-09-24T16:16:56.636Z,47.20
2022-09-24T16:19:30.802Z,47.80
2022-09-24T16:22:04.888Z,48.00
2022-09-24T16:24:38.802Z,48.20
2022-09-24T16:27:12.783Z,48.20
2022-09-24T16:29:48.064Z,48.10
2022-09-24T16:32:21.965Z,48.20
2022-09-24T16:34:57.109Z,47.90
2022-09-24T16:37:31.071Z,47.80
2022-09-24T16:40:04.878Z,47.70
2022-09-24T16:42:38.931Z,47.70
2022-09-24T16:45:29.058Z,47.50
2022-09-24T16:48:03.310Z,47.40
2022-09-24T16:50:37.165Z,47.20
2022-09-24T16:53:10.783Z,47.00
2022-09-24T16:55:44.683Z,47.00
2022-09-24T16:58:18.241Z,46.90
2022-09-24T17:00:53.559Z,46.80
2022-09-24T17:03:27.447Z,46.90
2022-09-24T17:06:03.575Z,46.90
2022-09-24T17:08:55.547Z,46.90
2022-09-24T17:11:29.552Z,46.90
2022-09-24T17:14:03.911Z,46.90
2022-09-24T17:16:39.232Z,46.70
2022-09-24T17:19:14.080Z,46.70
2022-09-24T17:21:50.419Z,46.70
2022-09-24T17:24:24.466Z,46.60
2022-09-24T17:26:58.361Z,46.50
2022-09-24T17:29:32.021Z,46.40
2022-09-24T17:32:07.495Z,46.50
2022-09-24T17:34:45.986Z,46.30
2022-09-24T17:37:20.263Z,46.00
2022-09-24T17:39:54.255Z,46.10
2022-09-24T17:42:28.238Z,46.10
2022-09-24T17:45:02.229Z,46.20
2022-09-24T17:47:51.376Z,46.30
2022-09-24T17:50:25.364Z,46.30
2022-09-24T17:52:59.817Z,46.30
2022-09-24T17:55:33.790Z,46.30
2022-09-24T17:58:07.915Z,46.50
2022-09-24T18:00:42.102Z,46.60
2022-09-24T18:03:17.936Z,46.60
2022-09-24T18:05:52.048Z,46.60
2022-09-24T18:08:26.055Z,46.60
2022-09-24T18:11:03.750Z,46.50
2022-09-24T18:13:38.074Z,46.50
2022-09-24T18:16:16.169Z,46.50
2022-09-24T18:18:51.970Z,46.50
2022-09-24T18:21:26.271Z,46.50
2022-09-24T18:24:01.853Z,46.60
2022-09-24T18:26:37.423Z,46.70
2022-09-24T18:29:15.887Z,47.10
2022-09-24T18:31:51.631Z,47.50
2022-09-24T18:34:27.406Z,47.70
2022-09-24T18:37:01.745Z,47.70
2022-09-24T18:39:36.037Z,47.60
2022-09-24T18:42:10.147Z,47.80
2022-09-24T18:44:44.410Z,48.10
2022-09-24T18:47:20.420Z,47.90
2022-09-24T18:49:56.456Z,48.00
2022-09-24T18:52:32.644Z,47.90
2022-09-24T18:55:07.918Z,48.00
2022-09-24T18:57:42.075Z,48.00
2022-09-24T19:00:30.558Z,48.00
2022-09-24T19:03:04.945Z,48.00
2022-09-24T19:05:41.008Z,48.00
2022-09-24T19:08:15.263Z,47.90
2022-09-24T19:10:50.085Z,47.80
2022-09-24T19:13:26.518Z,48.00
2022-09-24T19:16:06.174Z,48.10
2022-09-24T19:18:40.997Z,48.40
2022-09-24T19:21:16.677Z,48.40
2022-09-24T19:23:52.114Z,48.50
2022-09-24T19:26:27.662Z,48.70
2022-09-24T19:29:02.035Z,48.60
2022-09-24T19:31:38.559Z,48.50
2022-09-24T19:34:14.445Z,48.30
2022-09-24T19:36:50.284Z,48.10
2022-09-24T19:39:24.504Z,48.00
2022-09-24T19:41:58.531Z,47.90
2022-09-24T19:44:32.687Z,47.80
2022-09-24T19:47:09.867Z,47.50
2022-09-24T19:49:43.890Z,47.50
2022-09-24T19:52:19.325Z,47.90
2022-09-24T19:54:53.402Z,47.70
2022-09-24T19:57:27.549Z,47.50
2022-09-24T20:00:01.672Z,47.30
2022-09-24T20:02:38.948Z,47.00
2022-09-24T20:05:13.000Z,46.60
2022-09-24T20:07:48.812Z,46.30
2022-09-24T20:10:24.161Z,46.10
2022-09-24T20:12:58.509Z,45.70
2022-09-24T20:15:32.728Z,45.50
2022-09-24T20:18:07.264Z,45.70
2022-09-24T20:20:41.495Z,45.50
2022-09-24T20:23:17.214Z,45.20
2022-09-24T20:26:09.339Z,44.90
2022-09-24T20:28:43.325Z,45.00
2022-09-24T20:31:21.060Z,45.10
2022-09-24T20:33:55.122Z,45.20
2022-09-24T20:36:29.327Z,45.50
2022-09-24T20:39:05.046Z,45.90
2022-09-24T20:41:39.016Z,46.20
2022-09-24T20:44:13.018Z,46.20
2022-09-24T20:46:47.362Z,46.40
2022-09-24T20:49:23.228Z,46.70
2022-09-24T20:51:58.247Z,46.80
2022-09-24T20:54:34.842Z,46.80
2022-09-24T20:57:08.857Z,47.00
2022-09-24T20:59:42.763Z,47.10
2022-09-24T21:02:16.913Z,47.20
2022-09-24T21:04:51.683Z,47.30
2022-09-24T21:07:25.717Z,47.30
2022-09-24T21:10:01.103Z,47.40
2022-09-24T21:12:35.050Z,47.40
2022-09-24T21:15:11.494Z,47.30
2022-09-24T21:17:59.629Z,47.20
2022-09-24T21:20:39.282Z,47.30
2022-09-24T21:23:15.139Z,47.30
2022-09-24T21:25:54.428Z,47.30
2022-09-24T21:28:30.706Z,47.50
2022-09-24T21:31:05.665Z,47.60
2022-09-24T21:33:39.987Z,47.30
2022-09-24T21:36:18.661Z,47.30
2022-09-24T21:38:57.301Z,47.50
2022-09-24T21:41:34.245Z,47.70
2022-09-24T21:44:09.305Z,47.50
2022-09-24T21:46:44.199Z,47.50
2022-09-24T21:49:18.769Z,47.40
2022-09-24T21:51:54.995Z,47.60
2022-09-24T21:54:30.534Z,47.40
2022-09-24T21:57:09.004Z,47.40
2022-09-24T22:00:01.649Z,47.30
2022-09-24T22:02:43.365Z,47.50
2022-09-24T22:05:19.874Z,47.50
2022-09-24T22:07:56.546Z,47.60
2022-09-24T22:10:30.569Z,47.30
2022-09-24T22:13:06.257Z,47.50
2022-09-24T22:15:43.781Z,47.60
2022-09-24T22:18:17.847Z,47.70
2022-09-24T22:20:51.962Z,47.70
2022-09-24T22:23:26.785Z,47.50
2022-09-24T22:26:01.179Z,47.40
2022-09-24T22:28:39.671Z,47.90
2022-09-24T22:31:15.862Z,47.30
2022-09-24T22:34:07.260Z,47.20
2022-09-24T22:36:41.385Z,47.10
2022-09-24T22:39:15.926Z,47.30
2022-09-24T22:41:49.996Z,47.50
2022-09-24T22:44:25.440Z,47.30
2022-09-24T22:46:59.463Z,47.30
2022-09-24T22:49:33.998Z,47.10
2022-09-24T22:52:07.972Z,47.10
2022-09-24T22:54:43.225Z,47.10
2022-09-24T22:57:17.449Z,47.00
2022-09-24T22:59:54.463Z,47.00
2022-09-24T23:02:28.611Z,47.00
2022-09-24T23:05:03.650Z,46.70
2022-09-24T23:07:37.819Z,46.90
2022-09-24T23:10:12.124Z,46.80
2022-09-24T23:12:46.097Z,46.80
2022-09-24T23:15:21.671Z,46.70
2022-09-24T23:17:55.727Z,46.70
2022-09-24T23:20:29.897Z,46.90
2022-09-24T23:23:03.918Z,47.00
2022-09-24T23:25:37.905Z,47.20
2022-09-24T23:28:12.160Z,47.80
2022-09-24T23:30:57.183Z,47.90
2022-09-24T23:33:33.855Z,47.90
2022-09-24T23:36:08.723Z,48.30
2022-09-24T23:38:43.445Z,48.60
2022-09-24T23:41:17.904Z,48.50
2022-09-24T23:43:52.248Z,48.30
2022-09-24T23:46:27.822Z,48.20
2022-09-24T23:49:01.965Z,48.40
2022-09-24T23:51:36.004Z,48.60
2022-09-24T23:54:09.947Z,48.70
2022-09-24T23:56:43.977Z,48.70
2022-09-24T23:59:17.996Z,48.90
